Point Vicente — WDB9763 — position and weather

sailwx.info

Track history (hours):
 
Tides and Currents Weather Stations Pressure Air Temp Water Temp Dewpoint Dewpoint Depression Visibility Wind Speed Wind Dir Waves Ship Positions

Point Vicente

Owner: Foss Maritime Company, Seattle, WA. More information available from US FCC via Universal Licensing System and Coast Guard Vessel Documentation Center.

Last reported at 2017-Mar-30 19:33 UTC. Time now 2017-Mar-30 20:29 UTC.
Position N 37°54' W 122°22'.

Length 32 m; draft 4.3 m.

Type: Tug. MMSI: 366982330.

Date/timePositionNaut miles runAvg speedWind from/ knotsBaromVisibWave heightAir tempDewpointWater temp
2017-Mar-30 19:33N 37°54' W 122°22'0 0.0
2017-Mar-30 18:33N 37°54' W 122°22'0 0.0
2017-Mar-30 17:33N 37°54' W 122°22'0 0.0
2017-Mar-30 16:33N 37°54' W 122°22'0 0.0
2017-Mar-30 15:33N 37°54' W 122°22'0 0.0
2017-Mar-30 14:33N 37°54' W 122°22'0 0.0
2017-Mar-30 13:33N 37°54' W 122°22'0 0.0
2017-Mar-30 12:33N 37°54' W 122°22'0 0.0
2017-Mar-30 11:33N 37°54' W 122°22'0 0.0
2017-Mar-30 10:33N 37°54' W 122°22'0 0.0
2017-Mar-30 09:33N 37°54' W 122°22'0 0.0
2017-Mar-30 08:33N 37°54' W 122°22'0 0.0
2017-Mar-30 07:33N 37°54' W 122°22'0 0.0
2017-Mar-30 06:33N 37°54' W 122°22'2 2.5
2017-Mar-30 05:33N 37°52' W 122°24'3 3.3
2017-Mar-30 04:34N 37°49' W 122°22'2 2.1
2017-Mar-30 03:33N 37°48' W 122°20'0 0.0
2017-Mar-30 02:33N 37°48' W 122°20'0 0.0
2017-Mar-30 01:33N 37°48' W 122°20'0 0.0
2017-Mar-30 00:34N 37°48' W 122°20'0 0.0
2017-Mar-29 23:34N 37°48' W 122°20'2 2.2
2017-Mar-29 22:33N 37°49' W 122°22'0 0.0
2017-Mar-29 21:33N 37°49' W 122°22'5 5.1
2017-Mar-29 20:33N 37°54' W 122°23'0 0.3
2017-Mar-29 19:32N 37°54' W 122°22'0 0.0
2017-Mar-29 18:32N 37°54' W 122°22'0 0.0
2017-Mar-29 17:32N 37°54' W 122°22'0 0.0
2017-Mar-29 16:29N 37°54' W 122°22'0 0.0
2017-Mar-29 15:32N 37°54' W 122°22'0 0.0
2017-Mar-29 14:29N 37°54' W 122°22'0 0.0
2017-Mar-29 13:32N 37°54' W 122°22'0 0.0
2017-Mar-29 12:32N 37°54' W 122°22'0 0.0
2017-Mar-29 11:32N 37°54' W 122°22'0 0.0
2017-Mar-29 10:32N 37°54' W 122°22'0 0.0
2017-Mar-29 09:29N 37°54' W 122°22'0 0.0
2017-Mar-29 08:32N 37°54' W 122°22'0 0.0
2017-Mar-29 07:32N 37°54' W 122°22'0 0.0
2017-Mar-29 06:32N 37°54' W 122°22'0 0.0
2017-Mar-29 05:32N 37°54' W 122°22'1 0.9
2017-Mar-29 04:34N 37°54' W 122°23'5 5.3
2017-Mar-29 03:34N 37°49' W 122°22'4 4.2
2017-Mar-29 02:34N 37°53' W 122°25'3 3.1
2017-Mar-29 01:33N 37°55' W 122°22'1 0.8
2017-Mar-29 00:31N 37°54' W 122°22'0 0.0
2017-Mar-28 23:31N 37°54' W 122°22'0 0.0
2017-Mar-28 22:31N 37°54' W 122°22'0 0.0
2017-Mar-28 21:31N 37°54' W 122°22'0 0.0
2017-Mar-28 20:31N 37°54' W 122°22'0 0.0
2017-Mar-28 19:31N 37°54' W 122°22'1 0.6
2017-Mar-28 18:34N 37°55' W 122°22'0 0.0
2017-Mar-28 17:34N 37°55' W 122°22'0 0.1
2017-Mar-28 16:34N 37°55' W 122°22'0 0.0
2017-Mar-28 15:34N 37°55' W 122°22'0 0.0
2017-Mar-28 14:34N 37°55' W 122°22'0 0.0
2017-Mar-28 13:33N 37°55' W 122°22'1 0.7
2017-Mar-28 12:34N 37°54' W 122°22'0 0.1
2017-Mar-28 11:31N 37°54' W 122°22'0 0.0
2017-Mar-28 10:31N 37°54' W 122°22'0 0.0
2017-Mar-28 09:31N 37°54' W 122°22'0 0.0
2017-Mar-28 08:31N 37°54' W 122°22'0 0.0
2017-Mar-28 07:31N 37°54' W 122°22'0 0.0
2017-Mar-28 06:31N 37°54' W 122°22'0 0.0
2017-Mar-28 05:31N 37°54' W 122°22'0 0.0
2017-Mar-28 04:31N 37°54' W 122°22'0 0.0
2017-Mar-28 03:31N 37°54' W 122°22'0 0.0
2017-Mar-28 02:31N 37°54' W 122°22'2 2.6
2017-Mar-28 01:34N 37°56' W 122°25'3 2.6
2017-Mar-28 00:34N 37°55' W 122°22'1 0.8
2017-Mar-27 23:34N 37°54' W 122°22'0 0.0
2017-Mar-27 22:34N 37°54' W 122°22'3 3.4
2017-Mar-27 21:33N 37°51' W 122°23'5 5.3
2017-Mar-27 20:34N 37°48' W 122°18'0 0.0
2017-Mar-27 19:34N 37°48' W 122°18'0 0.0
2017-Mar-27 18:34N 37°48' W 122°18'0 0.0
2017-Mar-27 17:33N 37°48' W 122°18'0 0.0
2017-Mar-27 16:34N 37°48' W 122°18'0 0.0
2017-Mar-27 15:33N 37°48' W 122°18'0 0.0
2017-Mar-27 14:34N 37°48' W 122°18'2 1.9
2017-Mar-27 13:34N 37°48' W 122°20'2 1.8
2017-Mar-27 12:34N 37°49' W 122°22'5 5.0
2017-Mar-27 11:34N 37°54' W 122°24'1 1.4
2017-Mar-27 10:33N 37°54' W 122°22'0 0.0
2017-Mar-27 09:31N 37°54' W 122°22'0 0.0
2017-Mar-27 08:31N 37°54' W 122°22'0 0.0
2017-Mar-27 07:31N 37°54' W 122°22'0 0.0
2017-Mar-27 06:31N 37°54' W 122°22'0 0.0
2017-Mar-27 05:31N 37°54' W 122°22'0 0.0
2017-Mar-27 04:31N 37°54' W 122°22'0 0.0
2017-Mar-27 03:31N 37°54' W 122°22'0 0.0
2017-Mar-27 02:31N 37°54' W 122°22'0 0.0
2017-Mar-27 01:31N 37°54' W 122°22'0 0.0
2017-Mar-27 00:31N 37°54' W 122°22'0 0.0
2017-Mar-26 23:31N 37°54' W 122°22'0 0.0
2017-Mar-26 22:31N 37°54' W 122°22'0 0.0
2017-Mar-26 21:31N 37°54' W 122°22'0 0.0
2017-Mar-26 20:31N 37°54' W 122°22'0 0.0
2017-Mar-26 19:31N 37°54' W 122°22'0 0.0
2017-Mar-26 18:31N 37°54' W 122°22'0 0.0
2017-Mar-26 17:31N 37°54' W 122°22'0 0.0
2017-Mar-26 16:31N 37°54' W 122°22'0 0.0
2017-Mar-26 15:31N 37°54' W 122°22'0 0.0
2017-Mar-26 14:31N 37°54' W 122°22'0 0.0
2017-Mar-26 13:28N 37°54' W 122°22'0 0.0
2017-Mar-26 12:31N 37°54' W 122°22'0 0.0
2017-Mar-26 11:31N 37°54' W 122°22'0 0.0
2017-Mar-26 10:31N 37°54' W 122°22'0 0.0
2017-Mar-26 09:31N 37°54' W 122°22'0 0.0
2017-Mar-26 08:31N 37°54' W 122°22'0 0.0
2017-Mar-26 07:31N 37°54' W 122°22'0 0.0
2017-Mar-26 06:31N 37°54' W 122°22'0 0.0
2017-Mar-26 05:31N 37°54' W 122°22'0 0.0
2017-Mar-26 04:31N 37°54' W 122°22'0 0.0
2017-Mar-26 03:31N 37°54' W 122°22'0 0.0
2017-Mar-26 02:31N 37°54' W 122°22'0 0.0
2017-Mar-26 01:31N 37°54' W 122°22'0 0.0
2017-Mar-26 00:31N 37°54' W 122°22'0 0.0
2017-Mar-25 23:31N 37°54' W 122°22'0 0.0
2017-Mar-25 22:31N 37°54' W 122°22'0 0.0
2017-Mar-25 21:31N 37°54' W 122°22'0 0.0
2017-Mar-25 20:31N 37°54' W 122°22'0 0.0
2017-Mar-25 19:31N 37°54' W 122°22'0 0.0
2017-Mar-25 18:31N 37°54' W 122°22'0 0.0
2017-Mar-25 17:31N 37°54' W 122°22'0 0.0
2017-Mar-25 16:31N 37°54' W 122°22'0 0.0
2017-Mar-25 15:31N 37°54' W 122°22'0 0.0
2017-Mar-25 14:31N 37°54' W 122°22'0 0.0
2017-Mar-25 13:31N 37°54' W 122°22'0 0.0
2017-Mar-25 12:31N 37°54' W 122°22'0 0.0
2017-Mar-25 11:31N 37°54' W 122°22'0 0.0
2017-Mar-25 10:31N 37°54' W 122°22'2 1.8
2017-Mar-25 09:33N 37°53' W 122°24'6 5.5
2017-Mar-25 08:33N 37°49' W 122°20'0 0.0
2017-Mar-25 07:33N 37°49' W 122°20'0 0.0
2017-Mar-25 06:33N 37°49' W 122°20'0 0.0
2017-Mar-25 05:33N 37°49' W 122°20'0 0.0
2017-Mar-25 04:33N 37°49' W 122°20'0 0.0
2017-Mar-25 03:33N 37°49' W 122°20'0 0.0
2017-Mar-25 02:33N 37°49' W 122°20'0 0.2
2017-Mar-25 01:33N 37°49' W 122°20'2 1.7
2017-Mar-25 00:34N 37°49' W 122°22'0 0.0
2017-Mar-24 23:33N 37°49' W 122°22'0 0.0
2017-Mar-24 22:33N 37°49' W 122°22'0 0.0
2017-Mar-24 21:33N 37°49' W 122°22'5 4.8
2017-Mar-24 20:33N 37°54' W 122°24'1 1.4
2017-Mar-24 19:31N 37°54' W 122°22'0 0.0
2017-Mar-24 18:31N 37°54' W 122°22'0 0.0
2017-Mar-24 17:31N 37°54' W 122°22'0 0.0
2017-Mar-24 16:31N 37°54' W 122°22'0 0.0
2017-Mar-24 15:34N 37°54' W 122°22'0 0.0
2017-Mar-24 14:31N 37°54' W 122°22'0 0.0
2017-Mar-24 13:31N 37°54' W 122°22'0 0.0
2017-Mar-24 12:34N 37°54' W 122°22'0 0.0
2017-Mar-24 11:31N 37°54' W 122°22'0 0.0
2017-Mar-24 10:31N 37°54' W 122°22'0 0.0
2017-Mar-24 09:31N 37°54' W 122°22'0 0.0
2017-Mar-24 08:31N 37°54' W 122°22'0 0.0
2017-Mar-24 07:34N 37°54' W 122°22'0 0.0
2017-Mar-24 06:34N 37°54' W 122°22'0 0.0
2017-Mar-24 05:31N 37°54' W 122°22'0 0.0
2017-Mar-24 04:34N 37°54' W 122°22'0 0.0
2017-Mar-24 03:34N 37°54' W 122°22'0 0.0
2017-Mar-24 02:34N 37°54' W 122°22'0 0.0
2017-Mar-24 01:34N 37°54' W 122°22'0 0.0
2017-Mar-24 00:34N 37°54' W 122°22'0 0.0
2017-Mar-23 23:34N 37°54' W 122°22'0 0.0
2017-Mar-23 22:34N 37°54' W 122°22'0 0.0
2017-Mar-23 21:34N 37°54' W 122°22'0 0.0
2017-Mar-23 20:34N 37°54' W 122°22'0 0.0
2017-Mar-23 19:34N 37°54' W 122°22'0 0.0
2017-Mar-23 18:34N 37°54' W 122°22'0 0.0
2017-Mar-23 17:34N 37°54' W 122°22'0 0.0
2017-Mar-23 16:34N 37°54' W 122°22'0 0.0
2017-Mar-23 15:34N 37°54' W 122°22'1 0.9
2017-Mar-23 14:33N 37°55' W 122°22'2 2.2
2017-Mar-23 13:33N 37°54' W 122°25'6 6.2
2017-Mar-23 12:33N 37°48' W 122°21'3 2.5
2017-Mar-23 11:34N 37°46' W 122°20'0 0.2
2017-Mar-23 10:33N 37°46' W 122°20'0 0.0
2017-Mar-23 09:33N 37°46' W 122°20'0 0.0
2017-Mar-23 08:33N 37°46' W 122°20'0 0.1
2017-Mar-23 07:33N 37°46' W 122°20'0 0.2
2017-Mar-23 06:33N 37°46' W 122°20'0 0.1
2017-Mar-23 05:33N 37°46' W 122°20'2 1.9
2017-Mar-23 04:33N 37°48' W 122°19'1 0.9
2017-Mar-23 03:33N 37°48' W 122°18'0 0.0
2017-Mar-23 02:33N 37°48' W 122°18'0 0.0
2017-Mar-23 01:33N 37°48' W 122°18'0 0.0
2017-Mar-23 00:33N 37°48' W 122°18'0 0.0
2017-Mar-22 23:33N 37°48' W 122°18'0 0.4
2017-Mar-22 22:33N 37°48' W 122°18'6 6.4
2017-Mar-22 21:33N 37°52' W 122°24'2 2.3
2017-Mar-22 20:33N 37°54' W 122°22'0 0.0
2017-Mar-22 19:31N 37°54' W 122°22'0 0.0
2017-Mar-22 18:31N 37°54' W 122°22'0 0.0
2017-Mar-22 17:31N 37°54' W 122°22'0 0.0
2017-Mar-22 16:25N 37°54' W 122°22'0 0.0
2017-Mar-22 15:31N 37°54' W 122°22'0 0.0
2017-Mar-22 14:31N 37°54' W 122°22'0 0.0
2017-Mar-22 13:31N 37°54' W 122°22'0 0.0
2017-Mar-22 12:31N 37°54' W 122°22'0 0.0
2017-Mar-22 11:31N 37°54' W 122°22'0 0.0
2017-Mar-22 10:31N 37°54' W 122°22'0 0.0
2017-Mar-22 09:31N 37°54' W 122°22'0 0.0
2017-Mar-22 08:31N 37°54' W 122°22'0 0.0
2017-Mar-22 07:31N 37°54' W 122°22'0 0.0
2017-Mar-22 06:31N 37°54' W 122°22'0 0.0
2017-Mar-22 05:31N 37°54' W 122°22'0 0.0
2017-Mar-22 04:31N 37°54' W 122°22'0 0.0
2017-Mar-22 03:31N 37°54' W 122°22'0 0.0
2017-Mar-22 02:31N 37°54' W 122°22'0 0.0
2017-Mar-22 01:31N 37°54' W 122°22'0 0.0
2017-Mar-22 00:31N 37°54' W 122°22'0 0.0
2017-Mar-21 23:31N 37°54' W 122°22'0 0.0
2017-Mar-21 22:31N 37°54' W 122°22'0 0.0
2017-Mar-21 21:31N 37°54' W 122°22'0 0.0
2017-Mar-21 20:31N 37°54' W 122°22'0 0.0
2017-Mar-21 19:31N 37°54' W 122°22'0 0.0
2017-Mar-21 18:31N 37°54' W 122°22'0 0.0
2017-Mar-21 17:31N 37°54' W 122°22'0 0.0
2017-Mar-21 16:31N 37°54' W 122°22'0 0.0
2017-Mar-21 15:31N 37°54' W 122°22'0 0.0
2017-Mar-21 14:31N 37°54' W 122°22'0 0.0
2017-Mar-21 13:31N 37°54' W 122°22'0 0.0
2017-Mar-21 12:31N 37°54' W 122°22'0 0.0
2017-Mar-21 11:31N 37°54' W 122°22'0 0.0
2017-Mar-21 10:31N 37°54' W 122°22'0 0.0
2017-Mar-21 09:31N 37°54' W 122°22'0 0.0
2017-Mar-21 08:31N 37°54' W 122°22'0 0.0
2017-Mar-21 07:31N 37°54' W 122°22'0 0.0
2017-Mar-21 06:31N 37°54' W 122°22'0 0.0
2017-Mar-21 05:31N 37°54' W 122°22'0 0.0
2017-Mar-21 04:31N 37°54' W 122°22'0 0.0
2017-Mar-21 03:31N 37°54' W 122°22'0 0.0
2017-Mar-21 02:31N 37°54' W 122°22'0 0.0
2017-Mar-21 01:31N 37°54' W 122°22'0 0.0
2017-Mar-21 00:31N 37°54' W 122°22'0 0.0
2017-Mar-20 23:31N 37°54' W 122°22'0 0.0
2017-Mar-20 22:31N 37°54' W 122°22'2 2.4
2017-Mar-20 21:33N 37°56' W 122°25'2 2.3
2017-Mar-20 20:33N 37°53' W 122°25'5 5.3
2017-Mar-20 19:33N 37°49' W 122°21'  
Track history (hours):
 
Tides and Currents Weather Stations Pressure Air Temp Water Temp Dewpoint Dewpoint Depression Visibility Wind Speed Wind Dir Waves Ship Positions

Point Vicente

Owner: Foss Maritime Company, Seattle, WA. More information available from US FCC via Universal Licensing System and Coast Guard Vessel Documentation Center.

Last reported at 2017-Mar-30 19:33 UTC. Time now 2017-Mar-30 20:29 UTC.
Position N 37°54' W 122°22'.

Length 32 m; draft 4.3 m.

Type: Tug. MMSI: 366982330.

Date/timePositionNaut miles runAvg speedWind from/ knotsBaromVisibWave heightAir tempDewpointWater temp
2017-Mar-30 19:33N 37°54' W 122°22'0 0.0
2017-Mar-30 18:33N 37°54' W 122°22'0 0.0
2017-Mar-30 17:33N 37°54' W 122°22'0 0.0
2017-Mar-30 16:33N 37°54' W 122°22'0 0.0
2017-Mar-30 15:33N 37°54' W 122°22'0 0.0
2017-Mar-30 14:33N 37°54' W 122°22'0 0.0
2017-Mar-30 13:33N 37°54' W 122°22'0 0.0
2017-Mar-30 12:33N 37°54' W 122°22'0 0.0
2017-Mar-30 11:33N 37°54' W 122°22'0 0.0
2017-Mar-30 10:33N 37°54' W 122°22'0 0.0
2017-Mar-30 09:33N 37°54' W 122°22'0 0.0
2017-Mar-30 08:33N 37°54' W 122°22'0 0.0
2017-Mar-30 07:33N 37°54' W 122°22'0 0.0
2017-Mar-30 06:33N 37°54' W 122°22'2 2.5
2017-Mar-30 05:33N 37°52' W 122°24'3 3.3
2017-Mar-30 04:34N 37°49' W 122°22'2 2.1
2017-Mar-30 03:33N 37°48' W 122°20'0 0.0
2017-Mar-30 02:33N 37°48' W 122°20'0 0.0
2017-Mar-30 01:33N 37°48' W 122°20'0 0.0
2017-Mar-30 00:34N 37°48' W 122°20'0 0.0
2017-Mar-29 23:34N 37°48' W 122°20'2 2.2
2017-Mar-29 22:33N 37°49' W 122°22'0 0.0
2017-Mar-29 21:33N 37°49' W 122°22'5 5.1
2017-Mar-29 20:33N 37°54' W 122°23'0 0.3
2017-Mar-29 19:32N 37°54' W 122°22'0 0.0
2017-Mar-29 18:32N 37°54' W 122°22'0 0.0
2017-Mar-29 17:32N 37°54' W 122°22'0 0.0
2017-Mar-29 16:29N 37°54' W 122°22'0 0.0
2017-Mar-29 15:32N 37°54' W 122°22'0 0.0
2017-Mar-29 14:29N 37°54' W 122°22'0 0.0
2017-Mar-29 13:32N 37°54' W 122°22'0 0.0
2017-Mar-29 12:32N 37°54' W 122°22'0 0.0
2017-Mar-29 11:32N 37°54' W 122°22'0 0.0
2017-Mar-29 10:32N 37°54' W 122°22'0 0.0
2017-Mar-29 09:29N 37°54' W 122°22'0 0.0
2017-Mar-29 08:32N 37°54' W 122°22'0 0.0
2017-Mar-29 07:32N 37°54' W 122°22'0 0.0
2017-Mar-29 06:32N 37°54' W 122°22'0 0.0
2017-Mar-29 05:32N 37°54' W 122°22'1 0.9
2017-Mar-29 04:34N 37°54' W 122°23'5 5.3
2017-Mar-29 03:34N 37°49' W 122°22'4 4.2
2017-Mar-29 02:34N 37°53' W 122°25'3 3.1
2017-Mar-29 01:33N 37°55' W 122°22'1 0.8
2017-Mar-29 00:31N 37°54' W 122°22'0 0.0
2017-Mar-28 23:31N 37°54' W 122°22'0 0.0
2017-Mar-28 22:31N 37°54' W 122°22'0 0.0
2017-Mar-28 21:31N 37°54' W 122°22'0 0.0
2017-Mar-28 20:31N 37°54' W 122°22'0 0.0
2017-Mar-28 19:31N 37°54' W 122°22'1 0.6
2017-Mar-28 18:34N 37°55' W 122°22'0 0.0
2017-Mar-28 17:34N 37°55' W 122°22'0 0.1
2017-Mar-28 16:34N 37°55' W 122°22'0 0.0
2017-Mar-28 15:34N 37°55' W 122°22'0 0.0
2017-Mar-28 14:34N 37°55' W 122°22'0 0.0
2017-Mar-28 13:33N 37°55' W 122°22'1 0.7
2017-Mar-28 12:34N 37°54' W 122°22'0 0.1
2017-Mar-28 11:31N 37°54' W 122°22'0 0.0
2017-Mar-28 10:31N 37°54' W 122°22'0 0.0
2017-Mar-28 09:31N 37°54' W 122°22'0 0.0
2017-Mar-28 08:31N 37°54' W 122°22'0 0.0
2017-Mar-28 07:31N 37°54' W 122°22'0 0.0
2017-Mar-28 06:31N 37°54' W 122°22'0 0.0
2017-Mar-28 05:31N 37°54' W 122°22'0 0.0
2017-Mar-28 04:31N 37°54' W 122°22'0 0.0
2017-Mar-28 03:31N 37°54' W 122°22'0 0.0
2017-Mar-28 02:31N 37°54' W 122°22'2 2.6
2017-Mar-28 01:34N 37°56' W 122°25'3 2.6
2017-Mar-28 00:34N 37°55' W 122°22'1 0.8
2017-Mar-27 23:34N 37°54' W 122°22'0 0.0
2017-Mar-27 22:34N 37°54' W 122°22'3 3.4
2017-Mar-27 21:33N 37°51' W 122°23'5 5.3
2017-Mar-27 20:34N 37°48' W 122°18'0 0.0
2017-Mar-27 19:34N 37°48' W 122°18'0 0.0
2017-Mar-27 18:34N 37°48' W 122°18'0 0.0
2017-Mar-27 17:33N 37°48' W 122°18'0 0.0
2017-Mar-27 16:34N 37°48' W 122°18'0 0.0
2017-Mar-27 15:33N 37°48' W 122°18'0 0.0
2017-Mar-27 14:34N 37°48' W 122°18'2 1.9
2017-Mar-27 13:34N 37°48' W 122°20'2 1.8
2017-Mar-27 12:34N 37°49' W 122°22'5 5.0
2017-Mar-27 11:34N 37°54' W 122°24'1 1.4
2017-Mar-27 10:33N 37°54' W 122°22'0 0.0
2017-Mar-27 09:31N 37°54' W 122°22'0 0.0
2017-Mar-27 08:31N 37°54' W 122°22'0 0.0
2017-Mar-27 07:31N 37°54' W 122°22'0 0.0
2017-Mar-27 06:31N 37°54' W 122°22'0 0.0
2017-Mar-27 05:31N 37°54' W 122°22'0 0.0
2017-Mar-27 04:31N 37°54' W 122°22'0 0.0
2017-Mar-27 03:31N 37°54' W 122°22'0 0.0
2017-Mar-27 02:31N 37°54' W 122°22'0 0.0
2017-Mar-27 01:31N 37°54' W 122°22'0 0.0
2017-Mar-27 00:31N 37°54' W 122°22'0 0.0
2017-Mar-26 23:31N 37°54' W 122°22'0 0.0
2017-Mar-26 22:31N 37°54' W 122°22'0 0.0
2017-Mar-26 21:31N 37°54' W 122°22'0 0.0
2017-Mar-26 20:31N 37°54' W 122°22'0 0.0
2017-Mar-26 19:31N 37°54' W 122°22'0 0.0
2017-Mar-26 18:31N 37°54' W 122°22'0 0.0
2017-Mar-26 17:31N 37°54' W 122°22'0 0.0
2017-Mar-26 16:31N 37°54' W 122°22'0 0.0
2017-Mar-26 15:31N 37°54' W 122°22'0 0.0
2017-Mar-26 14:31N 37°54' W 122°22'0 0.0
2017-Mar-26 13:28N 37°54' W 122°22'0 0.0
2017-Mar-26 12:31N 37°54' W 122°22'0 0.0
2017-Mar-26 11:31N 37°54' W 122°22'0 0.0
2017-Mar-26 10:31N 37°54' W 122°22'0 0.0
2017-Mar-26 09:31N 37°54' W 122°22'0 0.0
2017-Mar-26 08:31N 37°54' W 122°22'0 0.0
2017-Mar-26 07:31N 37°54' W 122°22'0 0.0
2017-Mar-26 06:31N 37°54' W 122°22'0 0.0
2017-Mar-26 05:31N 37°54' W 122°22'0 0.0
2017-Mar-26 04:31N 37°54' W 122°22'0 0.0
2017-Mar-26 03:31N 37°54' W 122°22'0 0.0
2017-Mar-26 02:31N 37°54' W 122°22'0 0.0
2017-Mar-26 01:31N 37°54' W 122°22'0 0.0
2017-Mar-26 00:31N 37°54' W 122°22'0 0.0
2017-Mar-25 23:31N 37°54' W 122°22'0 0.0
2017-Mar-25 22:31N 37°54' W 122°22'0 0.0
2017-Mar-25 21:31N 37°54' W 122°22'0 0.0
2017-Mar-25 20:31N 37°54' W 122°22'0 0.0
2017-Mar-25 19:31N 37°54' W 122°22'0 0.0
2017-Mar-25 18:31N 37°54' W 122°22'0 0.0
2017-Mar-25 17:31N 37°54' W 122°22'0 0.0
2017-Mar-25 16:31N 37°54' W 122°22'0 0.0
2017-Mar-25 15:31N 37°54' W 122°22'0 0.0
2017-Mar-25 14:31N 37°54' W 122°22'0 0.0
2017-Mar-25 13:31N 37°54' W 122°22'0 0.0
2017-Mar-25 12:31N 37°54' W 122°22'0 0.0
2017-Mar-25 11:31N 37°54' W 122°22'0 0.0
2017-Mar-25 10:31N 37°54' W 122°22'2 1.8
2017-Mar-25 09:33N 37°53' W 122°24'6 5.5
2017-Mar-25 08:33N 37°49' W 122°20'0 0.0
2017-Mar-25 07:33N 37°49' W 122°20'0 0.0
2017-Mar-25 06:33N 37°49' W 122°20'0 0.0
2017-Mar-25 05:33N 37°49' W 122°20'0 0.0
2017-Mar-25 04:33N 37°49' W 122°20'0 0.0
2017-Mar-25 03:33N 37°49' W 122°20'0 0.0
2017-Mar-25 02:33N 37°49' W 122°20'0 0.2
2017-Mar-25 01:33N 37°49' W 122°20'2 1.7
2017-Mar-25 00:34N 37°49' W 122°22'0 0.0
2017-Mar-24 23:33N 37°49' W 122°22'0 0.0
2017-Mar-24 22:33N 37°49' W 122°22'0 0.0
2017-Mar-24 21:33N 37°49' W 122°22'5 4.8
2017-Mar-24 20:33N 37°54' W 122°24'1 1.4
2017-Mar-24 19:31N 37°54' W 122°22'0 0.0
2017-Mar-24 18:31N 37°54' W 122°22'0 0.0
2017-Mar-24 17:31N 37°54' W 122°22'0 0.0
2017-Mar-24 16:31N 37°54' W 122°22'0 0.0
2017-Mar-24 15:34N 37°54' W 122°22'0 0.0
2017-Mar-24 14:31N 37°54' W 122°22'0 0.0
2017-Mar-24 13:31N 37°54' W 122°22'0 0.0
2017-Mar-24 12:34N 37°54' W 122°22'0 0.0
2017-Mar-24 11:31N 37°54' W 122°22'0 0.0
2017-Mar-24 10:31N 37°54' W 122°22'0 0.0
2017-Mar-24 09:31N 37°54' W 122°22'0 0.0
2017-Mar-24 08:31N 37°54' W 122°22'0 0.0
2017-Mar-24 07:34N 37°54' W 122°22'0 0.0
2017-Mar-24 06:34N 37°54' W 122°22'0 0.0
2017-Mar-24 05:31N 37°54' W 122°22'0 0.0
2017-Mar-24 04:34N 37°54' W 122°22'0 0.0
2017-Mar-24 03:34N 37°54' W 122°22'0 0.0
2017-Mar-24 02:34N 37°54' W 122°22'0 0.0
2017-Mar-24 01:34N 37°54' W 122°22'0 0.0
2017-Mar-24 00:34N 37°54' W 122°22'0 0.0
2017-Mar-23 23:34N 37°54' W 122°22'0 0.0
2017-Mar-23 22:34N 37°54' W 122°22'0 0.0
2017-Mar-23 21:34N 37°54' W 122°22'0 0.0
2017-Mar-23 20:34N 37°54' W 122°22'0 0.0
2017-Mar-23 19:34N 37°54' W 122°22'0 0.0
2017-Mar-23 18:34N 37°54' W 122°22'0 0.0
2017-Mar-23 17:34N 37°54' W 122°22'0 0.0
2017-Mar-23 16:34N 37°54' W 122°22'0 0.0
2017-Mar-23 15:34N 37°54' W 122°22'1 0.9
2017-Mar-23 14:33N 37°55' W 122°22'2 2.2
2017-Mar-23 13:33N 37°54' W 122°25'6 6.2
2017-Mar-23 12:33N 37°48' W 122°21'3 2.5
2017-Mar-23 11:34N 37°46' W 122°20'0 0.2
2017-Mar-23 10:33N 37°46' W 122°20'0 0.0
2017-Mar-23 09:33N 37°46' W 122°20'0 0.0
2017-Mar-23 08:33N 37°46' W 122°20'0 0.1
2017-Mar-23 07:33N 37°46' W 122°20'0 0.2
2017-Mar-23 06:33N 37°46' W 122°20'0 0.1
2017-Mar-23 05:33N 37°46' W 122°20'2 1.9
2017-Mar-23 04:33N 37°48' W 122°19'1 0.9
2017-Mar-23 03:33N 37°48' W 122°18'0 0.0
2017-Mar-23 02:33N 37°48' W 122°18'0 0.0
2017-Mar-23 01:33N 37°48' W 122°18'0 0.0
2017-Mar-23 00:33N 37°48' W 122°18'0 0.0
2017-Mar-22 23:33N 37°48' W 122°18'0 0.4
2017-Mar-22 22:33N 37°48' W 122°18'6 6.4
2017-Mar-22 21:33N 37°52' W 122°24'2 2.3
2017-Mar-22 20:33N 37°54' W 122°22'0 0.0
2017-Mar-22 19:31N 37°54' W 122°22'0 0.0
2017-Mar-22 18:31N 37°54' W 122°22'0 0.0
2017-Mar-22 17:31N 37°54' W 122°22'0 0.0
2017-Mar-22 16:25N 37°54' W 122°22'0 0.0
2017-Mar-22 15:31N 37°54' W 122°22'0 0.0
2017-Mar-22 14:31N 37°54' W 122°22'0 0.0
2017-Mar-22 13:31N 37°54' W 122°22'0 0.0
2017-Mar-22 12:31N 37°54' W 122°22'0 0.0
2017-Mar-22 11:31N 37°54' W 122°22'0 0.0
2017-Mar-22 10:31N 37°54' W 122°22'0 0.0
2017-Mar-22 09:31N 37°54' W 122°22'0 0.0
2017-Mar-22 08:31N 37°54' W 122°22'0 0.0
2017-Mar-22 07:31N 37°54' W 122°22'0 0.0
2017-Mar-22 06:31N 37°54' W 122°22'0 0.0
2017-Mar-22 05:31N 37°54' W 122°22'0 0.0
2017-Mar-22 04:31N 37°54' W 122°22'0 0.0
2017-Mar-22 03:31N 37°54' W 122°22'0 0.0
2017-Mar-22 02:31N 37°54' W 122°22'0 0.0
2017-Mar-22 01:31N 37°54' W 122°22'0 0.0
2017-Mar-22 00:31N 37°54' W 122°22'0 0.0
2017-Mar-21 23:31N 37°54' W 122°22'0 0.0
2017-Mar-21 22:31N 37°54' W 122°22'0 0.0
2017-Mar-21 21:31N 37°54' W 122°22'0 0.0
2017-Mar-21 20:31N 37°54' W 122°22'0 0.0
2017-Mar-21 19:31N 37°54' W 122°22'0 0.0
2017-Mar-21 18:31N 37°54' W 122°22'0 0.0
2017-Mar-21 17:31N 37°54' W 122°22'0 0.0
2017-Mar-21 16:31N 37°54' W 122°22'0 0.0
2017-Mar-21 15:31N 37°54' W 122°22'0 0.0
2017-Mar-21 14:31N 37°54' W 122°22'0 0.0
2017-Mar-21 13:31N 37°54' W 122°22'0 0.0
2017-Mar-21 12:31N 37°54' W 122°22'0 0.0
2017-Mar-21 11:31N 37°54' W 122°22'0 0.0
2017-Mar-21 10:31N 37°54' W 122°22'0 0.0
2017-Mar-21 09:31N 37°54' W 122°22'0 0.0
2017-Mar-21 08:31N 37°54' W 122°22'0 0.0
2017-Mar-21 07:31N 37°54' W 122°22'0 0.0
2017-Mar-21 06:31N 37°54' W 122°22'0 0.0
2017-Mar-21 05:31N 37°54' W 122°22'0 0.0
2017-Mar-21 04:31N 37°54' W 122°22'0 0.0
2017-Mar-21 03:31N 37°54' W 122°22'0 0.0
2017-Mar-21 02:31N 37°54' W 122°22'0 0.0
2017-Mar-21 01:31N 37°54' W 122°22'0 0.0
2017-Mar-21 00:31N 37°54' W 122°22'0 0.0
2017-Mar-20 23:31N 37°54' W 122°22'0 0.0
2017-Mar-20 22:31N 37°54' W 122°22'2 2.4
2017-Mar-20 21:33N 37°56' W 122°25'2 2.3
2017-Mar-20 20:33N 37°53' W 122°25'5 5.3
2017-Mar-20 19:33N 37°49' W 122°21'  

Dump ship's entire track history